KHGRKMIV

Guest
Details From KHGR - HAGERSTOWN RGNL RICHARD A HENSON FLD
To KMIV - MILLVILLE MUNI
Flight Number -
Tags generated
Created
Modified
Stats Distance 125 nm / 231 km
Max Altitude 9,300 ft / 2,835 m
Waypoints 3
Social Downloads 1
Likes 0
Share VATSIM

Download

Looking for another format? Having issues loading an existing format? Contact us
Advertisement - Login to hide

Notes

Basic altitude profile: - Ascent Rate: 2500ft/min - Ascent Speed: 250kts - Cruise Altitude: 35000ft - Cruise Speed: 420kts - Descent Rate: 1500ft/min - Descent Speed: 250kts Options: - Use NATs: no - Use PACOTS: no - Use low airways: yes - Use high airways: no

Route

KHGR GATHR KMIV

ID Type Via Altitude Latitude Longitude Leg Dist Tot Dist Heading (true) Name
O KHGR APT - 0 ft / 0 m 39.70835˚ -77.72770˚ - 0 nm - HAGERSTOWN RGNL RICHARD A HENSON FLD
GATHR FIX - 9,300 ft / 2,835 m 39.65301˚ -77.16825˚ 26 nm 26 nm 97° / 98° -
O KMIV APT - 0 ft / 0 m 39.36787˚ -75.07226˚ 98 nm 124 nm 99° / 101° MILLVILLE MUNI

Altitude Profile

Advertisement - Login to hide

KHGR

Details ICAO KHGR (HGR)
Name HAGERSTOWN RGNL RICHARD A HENSON FLD
Region United States
Timezone America/New_York (UTC-5.0)
Stats Elevation 704 ft / 215 m (AMSL)
Location 39.708352° -77.727704°
Runways 2
Magnetic Variation 10.591° W

METAR

KHGR 170953Z AUTO 17004KT 9SM CLR M01/M06 A3019 RMK AO2 SLP240 T10111056 TSNO

Decode

TAF

Not found

Departure Runways

ID Width Length Bearing (true) Bearing (mag) Surface Threshold Offset Overrun Length
02 98 ft / 30 m 3,163 ft / 964 m 14.80° 25.39° Asphalt 0 ft / 0 m 0 ft / 0 m
09 151 ft / 46 m 7,007 ft / 2,136 m 80.45° 91.04° Asphalt 0 ft / 0 m 384 ft / 117 m
20 98 ft / 30 m 3,163 ft / 964 m 194.81° 205.40° Asphalt 0 ft / 0 m 0 ft / 0 m
27 151 ft / 46 m 7,007 ft / 2,136 m 260.47° 271.06° Asphalt 115 ft / 35 m 0 ft / 0 m

KMIV

Details ICAO KMIV (MIV)
Name MILLVILLE MUNI
Region United States
Timezone America/New_York (UTC-5.0)
Stats Elevation 85 ft / 26 m (AMSL)
Location 39.367870° -75.072260°
Runways 2
Magnetic Variation 12.037° W

METAR

KMIV 170954Z AUTO 00000KT 9SM CLR M05/M06 A3024 RMK AO2 SLP239 I1000 T10501056

Decode

TAF

TAF KMIV 170520Z 1706/1806 VRB03KT P6SM SCT060 FM172100 09003KT P6SM BKN040

Decode

Destination Runways

ID Width Length Bearing (true) Bearing (mag) Surface Threshold Offset Overrun Length
10 150 ft / 46 m 5,988 ft / 1,825 m 90.02° 102.06° Asphalt 0 ft / 0 m 0 ft / 0 m
14 150 ft / 46 m 5,056 ft / 1,541 m 135.14° 147.18° Concrete 0 ft / 0 m 0 ft / 0 m
28 150 ft / 46 m 5,988 ft / 1,825 m 270.03° 282.07° Asphalt 0 ft / 0 m 0 ft / 0 m
32 150 ft / 46 m 5,056 ft / 1,541 m 315.15° 327.19° Concrete 0 ft / 0 m 0 ft / 0 m

Approach Navaids

Runway Type Ident Frequency Range Bearing (true) Bearing (mag) Slope Elevation
10 Localiser IMIV 110.90 MHz 18 nm / 33 km 90.03° 102.07° - 85 ft / 26 m (AMSL)
10 Glidescope IMIV 110.90 MHz 10 nm / 19 km 90.03° 102.07° 3.00° 61 ft / 19 m (AMSL)